createdAt,value
2019-05-22T00:02:39.050Z,76.25
2019-05-22T00:05:25.335Z,76.14
2019-05-22T00:08:00.592Z,76.34
2019-05-22T00:10:34.608Z,76.60
2019-05-22T00:13:08.160Z,76.71
2019-05-22T00:15:40.169Z,76.79
2019-05-22T00:18:13.343Z,76.57
2019-05-22T00:20:45.305Z,76.26
2019-05-22T00:23:19.108Z,75.88
2019-05-22T00:25:53.529Z,75.55
2019-05-22T00:28:25.900Z,75.27
2019-05-22T00:30:59.418Z,75.27
2019-05-22T00:33:31.590Z,75.30
2019-05-22T00:36:04.644Z,75.28
2019-05-22T00:38:36.529Z,75.43
2019-05-22T00:41:10.034Z,75.28
2019-05-22T00:43:43.622Z,74.76
2019-05-22T00:46:19.467Z,74.81
2019-05-22T00:48:52.476Z,74.97
2019-05-22T00:51:29.972Z,75.02
2019-05-22T00:54:05.618Z,75.00
2019-05-22T00:56:57.326Z,74.70
2019-05-22T00:59:37.201Z,74.70
2019-05-22T01:02:10.483Z,74.45
2019-05-22T01:04:43.808Z,74.91
2019-05-22T01:07:19.434Z,74.65
2019-05-22T01:09:53.133Z,74.55
2019-05-22T01:12:27.859Z,73.22
2019-05-22T01:15:04.825Z,72.96
2019-05-22T01:17:38.523Z,73.17
2019-05-22T01:20:14.268Z,73.42
2019-05-22T01:22:47.900Z,73.30
2019-05-22T01:25:24.783Z,73.69
2019-05-22T01:27:58.386Z,73.52
2019-05-22T01:30:40.624Z,70.53
2019-05-22T01:33:30.680Z,69.40
2019-05-22T01:36:04.578Z,69.66
2019-05-22T01:38:39.016Z,69.61
2019-05-22T01:41:23.443Z,69.94
2019-05-22T01:43:57.059Z,70.18
2019-05-22T01:46:33.015Z,69.60
2019-05-22T01:49:06.931Z,69.57
2019-05-22T01:51:38.980Z,69.94
2019-05-22T01:54:11.432Z,70.32
2019-05-22T01:56:43.577Z,70.44
2019-05-22T01:59:15.595Z,71.03
2019-05-22T02:01:48.679Z,70.71
2019-05-22T02:04:22.162Z,70.22
2019-05-22T02:06:55.784Z,70.52
2019-05-22T02:09:34.175Z,70.38
2019-05-22T02:12:18.015Z,70.00
2019-05-22T02:14:53.059Z,69.61
2019-05-22T02:17:31.787Z,69.19
2019-05-22T02:20:06.842Z,69.44
2019-05-22T02:22:41.039Z,69.55
2019-05-22T02:25:14.438Z,70.18
2019-05-22T02:27:48.137Z,70.37
2019-05-22T02:30:23.503Z,69.64
2019-05-22T02:32:55.890Z,69.45
2019-05-22T02:35:29.403Z,69.91
2019-05-22T02:38:01.721Z,70.09
2019-05-22T02:40:38.002Z,70.18
2019-05-22T02:43:11.488Z,70.19
2019-05-22T02:45:43.873Z,70.80
2019-05-22T02:48:17.958Z,70.70
2019-05-22T02:50:50.253Z,69.60
2019-05-22T02:53:22.429Z,69.36
2019-05-22T02:55:55.808Z,69.53
2019-05-22T02:58:28.970Z,69.83
2019-05-22T03:01:05.790Z,70.28
2019-05-22T03:03:37.786Z,70.47
2019-05-22T03:06:13.664Z,70.15
2019-05-22T03:09:16.283Z,69.63
2019-05-22T03:12:01.036Z,69.92
2019-05-22T03:14:35.267Z,69.64
2019-05-22T03:17:10.082Z,70.35
2019-05-22T03:19:48.617Z,71.02
2019-05-22T03:22:27.940Z,71.11
2019-05-22T03:25:03.946Z,69.89
2019-05-22T03:27:50.499Z,68.75
2019-05-22T03:30:27.967Z,68.57
2019-05-22T03:33:02.572Z,69.55
2019-05-22T03:35:44.204Z,69.39
2019-05-22T03:38:18.309Z,69.03
2019-05-22T03:40:51.432Z,68.44
2019-05-22T03:43:28.473Z,69.09
2019-05-22T03:46:01.685Z,68.97
2019-05-22T03:48:37.619Z,69.38
2019-05-22T03:51:15.161Z,69.69
2019-05-22T03:53:48.836Z,70.17
2019-05-22T03:56:22.438Z,70.51
2019-05-22T03:58:55.519Z,70.25
2019-05-22T04:01:29.088Z,69.89
2019-05-22T04:04:02.823Z,70.32
2019-05-22T04:06:37.320Z,70.32
2019-05-22T04:09:20.078Z,70.15
2019-05-22T04:11:52.809Z,70.73
2019-05-22T04:14:27.865Z,71.33
2019-05-22T04:16:59.843Z,72.27
2019-05-22T04:19:47.449Z,72.48
2019-05-22T04:22:06.315Z,72.37
2019-05-22T04:24:41.062Z,72.78
2019-05-22T04:27:13.115Z,73.07
2019-05-22T04:29:45.580Z,73.61
2019-05-22T04:32:19.181Z,74.38
2019-05-22T04:34:51.904Z,75.48
2019-05-22T04:37:23.918Z,76.40
2019-05-22T04:39:58.373Z,77.00
2019-05-22T04:42:31.148Z,77.16
2019-05-22T04:45:09.598Z,78.27
2019-05-22T04:47:41.764Z,79.19
2019-05-22T04:50:15.667Z,79.01
2019-05-22T04:52:48.490Z,79.28
2019-05-22T04:55:23.866Z,80.26
2019-05-22T04:57:57.638Z,81.68
2019-05-22T05:00:30.936Z,82.35
2019-05-22T05:03:03.119Z,83.07
2019-05-22T05:05:37.751Z,83.70
2019-05-22T05:08:10.892Z,84.69
2019-05-22T05:10:44.425Z,85.35
2019-05-22T05:13:16.205Z,86.28
2019-05-22T05:15:47.961Z,87.04
2019-05-22T05:18:20.167Z,86.45
2019-05-22T05:20:52.360Z,87.25
2019-05-22T05:23:24.362Z,87.27
2019-05-22T05:25:56.198Z,86.81
2019-05-22T05:28:28.398Z,87.31
2019-05-22T05:31:00.466Z,87.35
2019-05-22T05:33:33.833Z,87.35
2019-05-22T05:36:07.276Z,87.98
2019-05-22T05:38:39.624Z,88.30
2019-05-22T05:41:11.808Z,88.54
2019-05-22T05:43:43.774Z,88.46
2019-05-22T05:46:15.915Z,88.26
2019-05-22T05:48:49.003Z,88.48
2019-05-22T05:51:23.529Z,88.29
2019-05-22T05:54:03.077Z,88.62
2019-05-22T05:56:37.668Z,88.95
2019-05-22T05:59:12.107Z,89.13
2019-05-22T06:01:48.258Z,89.20
2019-05-22T06:04:35.076Z,89.44
2019-05-22T06:07:21.172Z,89.02
2019-05-22T06:09:55.807Z,89.46
2019-05-22T06:12:27.978Z,89.52
2019-05-22T06:15:00.651Z,89.61
2019-05-22T06:17:51.998Z,90.34
2019-05-22T06:20:24.340Z,90.87
2019-05-22T06:23:17.098Z,89.37
2019-05-22T06:25:49.385Z,89.34
2019-05-22T06:28:23.419Z,89.09
2019-05-22T06:30:56.458Z,89.28
2019-05-22T06:33:35.745Z,89.38
2019-05-22T06:36:12.531Z,89.12
2019-05-22T06:38:53.677Z,89.04
2019-05-22T06:41:28.541Z,88.93
2019-05-22T06:44:21.335Z,89.29
2019-05-22T06:46:53.789Z,89.82
2019-05-22T06:49:34.671Z,90.36
2019-05-22T06:52:07.848Z,90.23
2019-05-22T06:54:40.672Z,90.42
2019-05-22T06:57:14.275Z,90.08
2019-05-22T06:59:47.362Z,89.49
2019-05-22T07:02:20.506Z,88.78
2019-05-22T07:04:52.782Z,88.22
2019-05-22T07:07:24.987Z,87.35
2019-05-22T07:09:56.877Z,86.40
2019-05-22T07:12:29.405Z,85.88
2019-05-22T07:15:04.545Z,85.39
2019-05-22T07:17:37.687Z,85.62
2019-05-22T07:20:11.443Z,85.95
2019-05-22T07:22:43.618Z,85.98
2019-05-22T07:25:15.527Z,85.82
2019-05-22T07:27:48.348Z,85.51
2019-05-22T07:30:21.088Z,85.86
2019-05-22T07:32:53.093Z,85.91
2019-05-22T07:35:42.372Z,85.70
2019-05-22T07:38:00.201Z,84.12
2019-05-22T07:40:32.285Z,83.13
2019-05-22T07:43:04.388Z,82.14
2019-05-22T07:45:37.601Z,81.57
2019-05-22T07:48:11.277Z,80.85
2019-05-22T07:50:48.404Z,79.95
2019-05-22T07:53:19.739Z,79.61
2019-05-22T07:55:54.086Z,78.71
2019-05-22T07:58:27.961Z,77.87
2019-05-22T08:01:01.820Z,77.01
2019-05-22T08:03:34.544Z,75.91
2019-05-22T08:06:09.487Z,76.43
2019-05-22T08:08:43.920Z,75.82
2019-05-22T08:11:16.400Z,75.83
2019-05-22T08:13:48.656Z,75.53
2019-05-22T08:16:21.750Z,75.91
2019-05-22T08:18:54.045Z,76.06
2019-05-22T08:21:26.511Z,76.30
2019-05-22T08:23:59.220Z,75.22
2019-05-22T08:26:32.225Z,73.61
2019-05-22T08:29:05.047Z,73.59
2019-05-22T08:31:37.945Z,73.96
2019-05-22T08:34:10.184Z,73.29
2019-05-22T08:36:42.292Z,74.19
2019-05-22T08:39:14.648Z,74.45
2019-05-22T08:41:46.683Z,74.05
2019-05-22T08:44:18.564Z,73.53
2019-05-22T08:46:50.225Z,74.34
2019-05-22T08:49:22.676Z,75.04
2019-05-22T08:51:54.961Z,74.96
2019-05-22T08:54:27.794Z,72.76
2019-05-22T08:56:59.822Z,71.81
2019-05-22T08:59:32.393Z,72.09
2019-05-22T09:02:05.174Z,72.88
2019-05-22T09:04:37.250Z,72.66
2019-05-22T09:07:08.893Z,71.67
2019-05-22T09:09:40.756Z,71.80
2019-05-22T09:12:13.552Z,72.24
2019-05-22T09:14:45.535Z,72.30
2019-05-22T09:17:17.767Z,72.37
2019-05-22T09:19:50.855Z,71.97
2019-05-22T09:22:39.159Z,71.42
2019-05-22T09:24:56.933Z,72.92
2019-05-22T09:27:29.186Z,74.21
2019-05-22T09:30:01.477Z,75.11
2019-05-22T09:32:33.013Z,75.92
2019-05-22T09:35:06.425Z,75.41
2019-05-22T09:37:38.595Z,76.35
2019-05-22T09:40:11.883Z,76.35
2019-05-22T09:42:43.948Z,76.55
2019-05-22T09:45:16.502Z,75.76
2019-05-22T09:47:48.694Z,76.12
2019-05-22T09:50:23.223Z,75.49
2019-05-22T09:52:58.030Z,77.08
2019-05-22T09:55:29.799Z,78.20
2019-05-22T09:58:01.776Z,78.92
2019-05-22T10:00:34.142Z,79.61
2019-05-22T10:03:07.227Z,80.91
2019-05-22T10:05:39.281Z,81.42
2019-05-22T10:08:11.054Z,81.80
2019-05-22T10:10:43.817Z,82.57
2019-05-22T10:13:15.909Z,83.76
2019-05-22T10:15:47.743Z,84.49
2019-05-22T10:18:20.286Z,84.97
2019-05-22T10:20:52.315Z,86.01
2019-05-22T10:23:24.863Z,86.47
2019-05-22T10:25:56.426Z,87.34
2019-05-22T10:28:28.786Z,87.80
2019-05-22T10:31:01.168Z,87.41
2019-05-22T10:33:33.448Z,87.56
2019-05-22T10:36:05.615Z,87.85
2019-05-22T10:38:37.459Z,88.11
2019-05-22T10:41:10.273Z,88.45
2019-05-22T10:43:41.974Z,88.03
2019-05-22T10:46:14.182Z,87.53
2019-05-22T10:48:47.418Z,87.70
2019-05-22T10:51:19.626Z,88.45
2019-05-22T10:53:51.798Z,88.90
2019-05-22T10:56:25.006Z,89.30
2019-05-22T10:58:57.485Z,89.94
2019-05-22T11:01:30.964Z,90.15
2019-05-22T11:04:02.840Z,89.89
2019-05-22T11:06:34.676Z,89.61
2019-05-22T11:09:07.259Z,89.62
2019-05-22T11:11:39.989Z,90.07
2019-05-22T11:14:12.498Z,90.67
2019-05-22T11:16:45.629Z,90.60
2019-05-22T11:19:17.918Z,90.59
2019-05-22T11:21:50.344Z,90.75
2019-05-22T11:24:22.231Z,91.64
2019-05-22T11:26:53.759Z,92.83
2019-05-22T11:29:25.434Z,93.85
2019-05-22T11:31:59.190Z,94.82
2019-05-22T11:34:31.044Z,95.70
2019-05-22T11:37:03.469Z,96.38
2019-05-22T11:39:39.823Z,97.32
2019-05-22T11:42:14.067Z,97.99
2019-05-22T11:44:46.573Z,98.24
2019-05-22T11:47:18.696Z,98.59
2019-05-22T11:49:50.630Z,98.93
2019-05-22T11:52:23.015Z,99.26
2019-05-22T11:54:54.897Z,99.58
2019-05-22T11:57:26.860Z,99.84
2019-05-22T11:59:59.949Z,99.73
2019-05-22T12:02:32.110Z,99.68
2019-05-22T12:05:06.051Z,99.65
2019-05-22T12:07:39.124Z,99.41
2019-05-22T12:10:12.534Z,99.17
2019-05-22T12:12:45.783Z,98.69
2019-05-22T12:15:21.132Z,98.09
2019-05-22T12:17:53.095Z,97.45
2019-05-22T12:20:26.396Z,96.74
2019-05-22T12:22:58.461Z,96.17
2019-05-22T12:25:30.768Z,95.56
2019-05-22T12:28:03.150Z,95.20
2019-05-22T12:30:36.120Z,94.98
2019-05-22T12:33:13.777Z,94.65
2019-05-22T12:35:43.400Z,93.65
2019-05-22T12:38:15.617Z,90.42
2019-05-22T12:40:47.427Z,88.47
2019-05-22T12:43:19.388Z,84.72
2019-05-22T12:45:51.357Z,84.29
2019-05-22T12:48:23.397Z,84.29
2019-05-22T12:50:55.667Z,83.86
2019-05-22T12:53:27.648Z,79.71
2019-05-22T12:56:00.366Z,77.18
2019-05-22T12:58:34.029Z,77.72
2019-05-22T13:01:06.417Z,78.14
2019-05-22T13:03:39.379Z,76.78
2019-05-22T13:06:13.045Z,77.54
2019-05-22T13:08:45.455Z,75.25
2019-05-22T13:11:17.433Z,75.17
2019-05-22T13:13:51.852Z,75.74
2019-05-22T13:16:24.573Z,76.38
2019-05-22T13:18:57.720Z,75.84
2019-05-22T13:21:34.413Z,76.72
2019-05-22T13:24:09.247Z,75.30
2019-05-22T13:26:42.218Z,76.08
2019-05-22T13:29:15.507Z,74.34
2019-05-22T13:31:49.927Z,75.84
2019-05-22T13:34:23.331Z,75.68
2019-05-22T13:36:56.948Z,77.44
2019-05-22T13:39:30.710Z,78.04
2019-05-22T13:42:02.767Z,79.08
2019-05-22T13:44:37.388Z,78.14
2019-05-22T13:47:12.093Z,74.25
2019-05-22T13:49:45.410Z,73.61
2019-05-22T13:52:17.381Z,75.02
2019-05-22T13:54:50.375Z,75.95
2019-05-22T13:57:22.774Z,76.68
2019-05-22T13:59:54.733Z,77.27
2019-05-22T14:02:27.392Z,78.25
2019-05-22T14:04:59.161Z,77.13
2019-05-22T14:07:31.329Z,76.88
2019-05-22T14:10:03.884Z,77.62
2019-05-22T14:12:36.176Z,79.33
2019-05-22T14:15:08.749Z,80.16
2019-05-22T14:17:40.884Z,80.66
2019-05-22T14:20:13.965Z,80.80
2019-05-22T14:22:46.569Z,80.39
2019-05-22T14:25:20.438Z,79.62
2019-05-22T14:27:52.447Z,78.50
2019-05-22T14:30:27.705Z,77.77
2019-05-22T14:33:04.336Z,77.07
2019-05-22T14:35:47.519Z,76.88
2019-05-22T14:38:10.656Z,76.84
2019-05-22T14:40:43.007Z,77.13
2019-05-22T14:43:14.792Z,77.17
2019-05-22T14:45:46.730Z,76.05
2019-05-22T14:48:18.403Z,73.05
2019-05-22T14:50:50.671Z,72.71
2019-05-22T14:53:22.521Z,72.89
2019-05-22T14:55:55.054Z,71.50
2019-05-22T14:58:28.401Z,71.53
2019-05-22T15:01:00.571Z,71.93
2019-05-22T15:03:33.991Z,73.08
2019-05-22T15:06:06.018Z,73.71
2019-05-22T15:08:37.944Z,74.61
2019-05-22T15:11:10.759Z,75.42
2019-05-22T15:13:42.828Z,75.80
2019-05-22T15:16:14.804Z,76.85
2019-05-22T15:18:46.702Z,77.53
2019-05-22T15:21:19.686Z,77.61
2019-05-22T15:23:52.342Z,77.39
2019-05-22T15:26:24.071Z,78.45
2019-05-22T15:28:56.726Z,79.03
2019-05-22T15:31:28.962Z,78.77
2019-05-22T15:34:02.755Z,78.87
2019-05-22T15:36:34.911Z,79.14
2019-05-22T15:39:08.762Z,79.55
2019-05-22T15:41:41.596Z,80.23
2019-05-22T15:44:13.388Z,80.94
2019-05-22T15:46:46.074Z,81.49
2019-05-22T15:49:19.548Z,81.78
2019-05-22T15:51:52.339Z,81.90
2019-05-22T15:54:26.722Z,82.34
2019-05-22T15:56:58.424Z,82.06
2019-05-22T15:59:30.366Z,82.09
2019-05-22T16:02:05.190Z,81.96
2019-05-22T16:04:39.200Z,82.09
2019-05-22T16:07:12.886Z,82.37
2019-05-22T16:09:45.990Z,82.62
2019-05-22T16:12:18.723Z,83.08
2019-05-22T16:14:51.743Z,83.08
2019-05-22T16:17:24.436Z,83.31
2019-05-22T16:19:57.362Z,83.65
2019-05-22T16:22:30.664Z,83.68
2019-05-22T16:25:03.090Z,83.99
2019-05-22T16:27:36.077Z,84.31
2019-05-22T16:30:08.127Z,84.77
2019-05-22T16:32:41.015Z,84.80
2019-05-22T16:35:13.409Z,85.00
2019-05-22T16:37:46.210Z,85.41
2019-05-22T16:40:18.740Z,85.85
2019-05-22T16:42:52.034Z,85.89
2019-05-22T16:45:25.793Z,86.21
2019-05-22T16:47:59.416Z,86.56
2019-05-22T16:50:32.779Z,86.68
2019-05-22T16:53:08.391Z,86.98
2019-05-22T16:55:41.659Z,87.08
2019-05-22T16:58:14.252Z,87.17
2019-05-22T17:00:47.308Z,87.45
2019-05-22T17:03:19.978Z,87.69
2019-05-22T17:05:51.790Z,87.52
2019-05-22T17:08:24.359Z,88.03
2019-05-22T17:10:59.556Z,88.47
2019-05-22T17:13:32.865Z,88.71
2019-05-22T17:16:05.055Z,88.97
2019-05-22T17:18:47.604Z,89.27
2019-05-22T17:21:13.214Z,89.52
2019-05-22T17:23:45.778Z,89.87
2019-05-22T17:26:18.458Z,90.40
2019-05-22T17:28:50.459Z,90.83
2019-05-22T17:31:24.436Z,91.42
2019-05-22T17:33:56.423Z,91.81
2019-05-22T17:36:28.685Z,92.17
2019-05-22T17:39:01.651Z,92.36
2019-05-22T17:41:35.642Z,92.67
2019-05-22T17:44:10.452Z,93.05
2019-05-22T17:46:46.025Z,93.45
2019-05-22T17:49:19.031Z,93.72
2019-05-22T17:51:51.402Z,93.92
2019-05-22T17:54:23.556Z,94.24
2019-05-22T17:56:56.236Z,94.53
2019-05-22T17:59:28.311Z,94.72
2019-05-22T18:02:00.656Z,94.84
2019-05-22T18:04:34.329Z,94.87
2019-05-22T18:07:06.783Z,95.10
2019-05-22T18:09:38.563Z,95.38
2019-05-22T18:12:11.410Z,95.68
2019-05-22T18:14:43.629Z,95.88
2019-05-22T18:17:15.939Z,96.03
2019-05-22T18:19:48.011Z,96.25
2019-05-22T18:22:20.132Z,96.38
2019-05-22T18:24:51.868Z,96.52
2019-05-22T18:27:25.368Z,96.67
2019-05-22T18:29:57.179Z,96.80
2019-05-22T18:32:31.580Z,97.01
2019-05-22T18:35:02.964Z,97.22
2019-05-22T18:37:34.717Z,97.39
2019-05-22T18:40:09.373Z,97.57
2019-05-22T18:42:41.414Z,97.71
2019-05-22T18:45:14.428Z,98.00
2019-05-22T18:47:47.259Z,98.15
2019-05-22T18:50:19.148Z,98.17
2019-05-22T18:52:52.048Z,98.20
2019-05-22T18:55:24.288Z,98.14
2019-05-22T18:57:56.395Z,98.17
2019-05-22T19:00:29.257Z,98.28
2019-05-22T19:03:01.219Z,98.30
2019-05-22T19:05:33.904Z,98.39
2019-05-22T19:08:07.900Z,98.57
2019-05-22T19:10:40.180Z,98.70
2019-05-22T19:13:14.610Z,98.75
2019-05-22T19:15:46.968Z,98.86
2019-05-22T19:18:19.726Z,98.90
2019-05-22T19:20:51.737Z,99.00
2019-05-22T19:23:24.501Z,99.09
2019-05-22T19:25:59.322Z,99.13
2019-05-22T19:28:43.519Z,99.25
2019-05-22T19:31:07.041Z,99.29
2019-05-22T19:33:39.647Z,99.33
2019-05-22T19:36:11.987Z,99.51
2019-05-22T19:38:43.965Z,99.73
2019-05-22T19:41:16.838Z,99.93
2019-05-22T19:43:49.516Z,99.92
2019-05-22T19:46:21.530Z,99.85
2019-05-22T19:48:54.735Z,99.76
2019-05-22T19:51:27.318Z,99.64
2019-05-22T19:54:00.954Z,99.49
2019-05-22T19:56:34.129Z,99.35
2019-05-22T19:59:08.858Z,99.10
2019-05-22T20:01:40.952Z,98.71
2019-05-22T20:04:13.846Z,98.48
2019-05-22T20:06:46.019Z,98.41
2019-05-22T20:09:19.692Z,98.38
2019-05-22T20:11:51.801Z,98.41
2019-05-22T20:14:25.367Z,98.43
2019-05-22T20:16:59.866Z,98.13
2019-05-22T20:19:32.065Z,97.85
2019-05-22T20:22:04.525Z,97.67
2019-05-22T20:24:36.783Z,97.62
2019-05-22T20:27:09.989Z,97.52
2019-05-22T20:29:42.307Z,97.55
2019-05-22T20:32:15.660Z,97.46
2019-05-22T20:34:48.783Z,97.26
2019-05-22T20:37:21.518Z,97.07
2019-05-22T20:39:54.060Z,96.72
2019-05-22T20:42:27.006Z,96.42
2019-05-22T20:44:59.639Z,95.89
2019-05-22T20:47:32.392Z,95.29
2019-05-22T20:50:06.504Z,94.17
2019-05-22T20:52:39.760Z,93.59
2019-05-22T20:55:12.708Z,92.61
2019-05-22T20:57:44.992Z,91.94
2019-05-22T21:00:19.743Z,91.59
2019-05-22T21:02:54.142Z,91.49
2019-05-22T21:09:27.151Z,91.45
2019-05-22T21:15:48.324Z,91.86
2019-05-22T21:18:58.023Z,92.36
2019-05-22T21:21:30.999Z,92.45
2019-05-22T21:24:11.221Z,92.47
2019-05-22T21:26:38.921Z,92.63
2019-05-22T21:29:29.070Z,92.47
2019-05-22T21:32:01.889Z,92.17
2019-05-22T21:34:34.975Z,92.12
2019-05-22T21:37:26.082Z,92.09
2019-05-22T21:40:00.609Z,91.92
2019-05-22T21:50:11.141Z,92.16
2019-05-22T21:53:19.993Z,92.52
2019-05-22T21:59:19.721Z,93.18
2019-05-22T22:01:53.481Z,93.32
2019-05-22T22:07:34.386Z,93.57
2019-05-22T22:10:43.720Z,93.22
2019-05-22T22:13:17.709Z,93.15
2019-05-22T22:16:09.993Z,93.14
2019-05-22T22:19:54.127Z,93.31
2019-05-22T22:23:39.303Z,93.53
2019-05-22T22:27:24.349Z,93.70
2019-05-22T22:52:39.956Z,93.11
2019-05-22T22:55:14.545Z,92.49
2019-05-22T22:57:47.483Z,92.36
2019-05-22T23:00:21.567Z,92.43
2019-05-22T23:02:54.682Z,92.54
2019-05-22T23:05:26.647Z,92.66
2019-05-22T23:07:59.915Z,92.58
2019-05-22T23:10:32.951Z,92.68
2019-05-22T23:13:07.241Z,92.74
2019-05-22T23:15:40.342Z,92.58
2019-05-22T23:18:14.948Z,92.24
2019-05-22T23:20:46.517Z,92.30
2019-05-22T23:23:17.659Z,92.36
2019-05-22T23:25:49.725Z,92.48
2019-05-22T23:28:34.111Z,92.72
2019-05-22T23:30:55.722Z,92.76
2019-05-22T23:34:03.270Z,92.51
2019-05-22T23:36:39.309Z,92.29
2019-05-22T23:40:06.097Z,92.38
2019-05-22T23:42:58.971Z,92.45
2019-05-22T23:45:31.201Z,92.42
2019-05-22T23:48:07.407Z,92.50
2019-05-22T23:50:40.302Z,92.81
2019-05-22T23:57:32.243Z,92.50
